sensor_id;sensor_type;location;lat;lon;timestamp;temperature;humidity
42867;DHT22;39461;40.948;73.006;2022-08-02T00:01:30;24.00;74.80
42867;DHT22;39461;40.948;73.006;2022-08-02T00:04:03;23.90;74.90
42867;DHT22;39461;40.948;73.006;2022-08-02T00:06:36;23.80;75.20
42867;DHT22;39461;40.948;73.006;2022-08-02T00:09:10;23.80;75.30
42867;DHT22;39461;40.948;73.006;2022-08-02T00:11:43;23.70;75.80
42867;DHT22;39461;40.948;73.006;2022-08-02T00:14:16;23.60;76.20
42867;DHT22;39461;40.948;73.006;2022-08-02T00:16:49;23.60;76.50
42867;DHT22;39461;40.948;73.006;2022-08-02T00:19:22;23.60;76.70
42867;DHT22;39461;40.948;73.006;2022-08-02T00:21:55;23.50;76.80
42867;DHT22;39461;40.948;73.006;2022-08-02T00:24:28;23.60;76.60
42867;DHT22;39461;40.948;73.006;2022-08-02T00:27:01;23.60;76.60
42867;DHT22;39461;40.948;73.006;2022-08-02T00:29:39;23.50;76.70
42867;DHT22;39461;40.948;73.006;2022-08-02T00:32:12;23.50;77.10
42867;DHT22;39461;40.948;73.006;2022-08-02T00:34:45;23.50;77.10
42867;DHT22;39461;40.948;73.006;2022-08-02T00:37:24;23.50;77.10
42867;DHT22;39461;40.948;73.006;2022-08-02T00:39:57;23.40;77.50
42867;DHT22;39461;40.948;73.006;2022-08-02T00:42:30;23.40;77.50
42867;DHT22;39461;40.948;73.006;2022-08-02T00:45:06;23.40;77.70
42867;DHT22;39461;40.948;73.006;2022-08-02T00:47:39;23.50;77.30
42867;DHT22;39461;40.948;73.006;2022-08-02T00:50:12;23.50;77.10
42867;DHT22;39461;40.948;73.006;2022-08-02T00:52:45;23.60;77.40
42867;DHT22;39461;40.948;73.006;2022-08-02T00:55:18;23.60;76.80
42867;DHT22;39461;40.948;73.006;2022-08-02T00:57:57;23.70;76.90
42867;DHT22;39461;40.948;73.006;2022-08-02T01:00:30;23.70;76.60
42867;DHT22;39461;40.948;73.006;2022-08-02T01:03:03;23.80;76.80
42867;DHT22;39461;40.948;73.006;2022-08-02T01:05:30;23.80;76.30
42867;DHT22;39461;40.948;73.006;2022-08-02T01:08:03;23.90;76.00
42867;DHT22;39461;40.948;73.006;2022-08-02T01:10:43;24.00;75.90
42867;DHT22;39461;40.948;73.006;2022-08-02T01:13:18;24.00;75.90
42867;DHT22;39461;40.948;73.006;2022-08-02T01:15:57;24.10;76.00
42867;DHT22;39461;40.948;73.006;2022-08-02T01:18:39;24.10;75.70
42867;DHT22;39461;40.948;73.006;2022-08-02T01:21:31;24.20;75.50
42867;DHT22;39461;40.948;73.006;2022-08-02T01:29:36;24.50;75.10
42867;DHT22;39461;40.948;73.006;2022-08-02T01:32:15;24.60;74.40
42867;DHT22;39461;40.948;73.006;2022-08-02T01:34:53;24.70;74.20
42867;DHT22;39461;40.948;73.006;2022-08-02T01:37:38;24.80;74.70
42867;DHT22;39461;40.948;73.006;2022-08-02T01:40:09;24.80;75.70
42867;DHT22;39461;40.948;73.006;2022-08-02T01:42:47;24.90;77.70
42867;DHT22;39461;40.948;73.006;2022-08-02T01:45:29;25.00;77.80
42867;DHT22;39461;40.948;73.006;2022-08-02T01:48:03;25.10;78.40
42867;DHT22;39461;40.948;73.006;2022-08-02T01:50:35;25.20;78.30
42867;DHT22;39461;40.948;73.006;2022-08-02T01:53:11;25.30;77.50
42867;DHT22;39461;40.948;73.006;2022-08-02T01:55:52;25.30;78.70
42867;DHT22;39461;40.948;73.006;2022-08-02T01:58:30;25.30;79.90
42867;DHT22;39461;40.948;73.006;2022-08-02T02:01:04;25.30;80.10
42867;DHT22;39461;40.948;73.006;2022-08-02T02:03:39;25.40;81.20
42867;DHT22;39461;40.948;73.006;2022-08-02T02:06:13;25.50;80.00
42867;DHT22;39461;40.948;73.006;2022-08-02T02:08:43;25.70;78.90
42867;DHT22;39461;40.948;73.006;2022-08-02T02:11:16;25.70;77.90
42867;DHT22;39461;40.948;73.006;2022-08-02T02:13:49;25.80;78.20
42867;DHT22;39461;40.948;73.006;2022-08-02T02:16:23;25.90;77.40
42867;DHT22;39461;40.948;73.006;2022-08-02T02:19:00;26.00;78.60
42867;DHT22;39461;40.948;73.006;2022-08-02T02:21:35;26.10;77.40
42867;DHT22;39461;40.948;73.006;2022-08-02T02:24:08;26.20;77.40
42867;DHT22;39461;40.948;73.006;2022-08-02T02:26:42;26.30;77.60
42867;DHT22;39461;40.948;73.006;2022-08-02T02:29:25;26.40;75.30
42867;DHT22;39461;40.948;73.006;2022-08-02T02:32:03;26.50;74.80
42867;DHT22;39461;40.948;73.006;2022-08-02T02:34:41;26.50;74.70
42867;DHT22;39461;40.948;73.006;2022-08-02T02:37:20;26.40;75.00
42867;DHT22;39461;40.948;73.006;2022-08-02T02:39:54;26.50;76.10
42867;DHT22;39461;40.948;73.006;2022-08-02T02:42:32;26.60;75.20
42867;DHT22;39461;40.948;73.006;2022-08-02T02:45:08;26.60;73.40
42867;DHT22;39461;40.948;73.006;2022-08-02T02:47:45;26.60;72.80
42867;DHT22;39461;40.948;73.006;2022-08-02T02:50:23;26.60;73.40
42867;DHT22;39461;40.948;73.006;2022-08-02T02:52:59;26.60;73.50
42867;DHT22;39461;40.948;73.006;2022-08-02T02:55:33;26.80;72.40
42867;DHT22;39461;40.948;73.006;2022-08-02T02:58:06;27.00;72.60
42867;DHT22;39461;40.948;73.006;2022-08-02T03:00:40;27.20;71.30
42867;DHT22;39461;40.948;73.006;2022-08-02T03:03:34;27.30;69.80
42867;DHT22;39461;40.948;73.006;2022-08-02T03:06:11;27.50;70.70
42867;DHT22;39461;40.948;73.006;2022-08-02T03:08:44;27.70;70.40
42867;DHT22;39461;40.948;73.006;2022-08-02T03:11:17;27.90;71.10
42867;DHT22;39461;40.948;73.006;2022-08-02T03:13:51;28.00;70.60
42867;DHT22;39461;40.948;73.006;2022-08-02T03:16:27;27.80;70.30
42867;DHT22;39461;40.948;73.006;2022-08-02T03:19:02;27.70;70.30
42867;DHT22;39461;40.948;73.006;2022-08-02T03:21:43;27.80;69.00
42867;DHT22;39461;40.948;73.006;2022-08-02T03:24:16;28.00;67.70
42867;DHT22;39461;40.948;73.006;2022-08-02T03:26:49;28.10;68.90
42867;DHT22;39461;40.948;73.006;2022-08-02T03:29:24;28.20;66.60
42867;DHT22;39461;40.948;73.006;2022-08-02T03:31:59;28.40;64.60
42867;DHT22;39461;40.948;73.006;2022-08-02T04:00:52;30.00;58.20
42867;DHT22;39461;40.948;73.006;2022-08-02T04:03:27;29.90;57.30
42867;DHT22;39461;40.948;73.006;2022-08-02T04:06:01;29.90;57.70
42867;DHT22;39461;40.948;73.006;2022-08-02T04:08:36;30.10;57.50
42867;DHT22;39461;40.948;73.006;2022-08-02T04:11:09;30.20;58.10
42867;DHT22;39461;40.948;73.006;2022-08-02T04:14:05;30.20;58.40
42867;DHT22;39461;40.948;73.006;2022-08-02T04:16:43;30.20;58.20
42867;DHT22;39461;40.948;73.006;2022-08-02T04:22:28;30.40;58.90
42867;DHT22;39461;40.948;73.006;2022-08-02T04:25:06;30.60;58.90
42867;DHT22;39461;40.948;73.006;2022-08-02T04:27:40;30.60;57.90
42867;DHT22;39461;40.948;73.006;2022-08-02T04:30:16;30.60;58.10
42867;DHT22;39461;40.948;73.006;2022-08-02T04:32:51;30.70;58.40
42867;DHT22;39461;40.948;73.006;2022-08-02T04:35:21;30.60;58.60
42867;DHT22;39461;40.948;73.006;2022-08-02T04:37:55;30.60;58.70
42867;DHT22;39461;40.948;73.006;2022-08-02T04:40:30;30.60;58.80
42867;DHT22;39461;40.948;73.006;2022-08-02T04:43:05;30.40;58.70
42867;DHT22;39461;40.948;73.006;2022-08-02T04:45:41;30.40;58.50
42867;DHT22;39461;40.948;73.006;2022-08-02T04:48:17;30.50;58.50
42867;DHT22;39461;40.948;73.006;2022-08-02T04:50:52;30.30;57.90
42867;DHT22;39461;40.948;73.006;2022-08-02T04:53:28;30.30;57.70
42867;DHT22;39461;40.948;73.006;2022-08-02T04:56:03;30.40;58.40
42867;DHT22;39461;40.948;73.006;2022-08-02T04:58:36;30.40;58.80
42867;DHT22;39461;40.948;73.006;2022-08-02T05:01:03;30.30;58.80
42867;DHT22;39461;40.948;73.006;2022-08-02T05:03:30;30.30;59.30
42867;DHT22;39461;40.948;73.006;2022-08-02T05:05:59;30.70;58.40
42867;DHT22;39461;40.948;73.006;2022-08-02T05:08:34;30.80;58.40
42867;DHT22;39461;40.948;73.006;2022-08-02T05:11:07;31.00;58.50
42867;DHT22;39461;40.948;73.006;2022-08-02T05:13:40;31.20;58.50
42867;DHT22;39461;40.948;73.006;2022-08-02T05:16:14;31.40;59.20
42867;DHT22;39461;40.948;73.006;2022-08-02T05:18:48;31.50;59.20
42867;DHT22;39461;40.948;73.006;2022-08-02T05:21:22;31.50;57.80
42867;DHT22;39461;40.948;73.006;2022-08-02T05:23:49;31.60;57.70
42867;DHT22;39461;40.948;73.006;2022-08-02T05:26:16;31.60;58.60
42867;DHT22;39461;40.948;73.006;2022-08-02T05:29:15;31.70;58.70
42867;DHT22;39461;40.948;73.006;2022-08-02T05:32:14;31.50;58.40
42867;DHT22;39461;40.948;73.006;2022-08-02T05:34:47;31.50;58.70
42867;DHT22;39461;40.948;73.006;2022-08-02T05:37:20;31.50;58.70
42867;DHT22;39461;40.948;73.006;2022-08-02T05:40:22;31.40;58.80
42867;DHT22;39461;40.948;73.006;2022-08-02T05:42:55;31.20;60.50
42867;DHT22;39461;40.948;73.006;2022-08-02T05:45:33;31.10;61.60
42867;DHT22;39461;40.948;73.006;2022-08-02T05:48:07;31.30;61.50
42867;DHT22;39461;40.948;73.006;2022-08-02T05:50:40;31.50;60.70
42867;DHT22;39461;40.948;73.006;2022-08-02T05:53:31;31.30;60.80
42867;DHT22;39461;40.948;73.006;2022-08-02T05:56:33;31.40;61.20
42867;DHT22;39461;40.948;73.006;2022-08-02T05:59:35;31.40;61.20
42867;DHT22;39461;40.948;73.006;2022-08-02T06:02:43;31.50;60.70
42867;DHT22;39461;40.948;73.006;2022-08-02T06:05:15;31.30;61.00
42867;DHT22;39461;40.948;73.006;2022-08-02T06:07:46;31.30;60.80
42867;DHT22;39461;40.948;73.006;2022-08-02T06:10:21;31.20;60.20
42867;DHT22;39461;40.948;73.006;2022-08-02T06:15:37;31.20;59.80
42867;DHT22;39461;40.948;73.006;2022-08-02T06:18:15;31.30;58.50
42867;DHT22;39461;40.948;73.006;2022-08-02T06:20:51;31.30;58.10
42867;DHT22;39461;40.948;73.006;2022-08-02T06:23:28;31.20;58.40
42867;DHT22;39461;40.948;73.006;2022-08-02T06:26:11;31.20;58.00
42867;DHT22;39461;40.948;73.006;2022-08-02T06:28:42;31.00;58.00
42867;DHT22;39461;40.948;73.006;2022-08-02T06:31:19;31.10;58.40
42867;DHT22;39461;40.948;73.006;2022-08-02T06:33:49;31.10;57.30
42867;DHT22;39461;40.948;73.006;2022-08-02T06:36:48;31.30;56.40
42867;DHT22;39461;40.948;73.006;2022-08-02T06:39:48;31.40;55.50
42867;DHT22;39461;40.948;73.006;2022-08-02T06:42:57;31.50;54.90
42867;DHT22;39461;40.948;73.006;2022-08-02T06:45:39;31.70;56.00
42867;DHT22;39461;40.948;73.006;2022-08-02T06:48:19;31.90;58.60
42867;DHT22;39461;40.948;73.006;2022-08-02T06:50:57;32.00;58.70
42867;DHT22;39461;40.948;73.006;2022-08-02T06:53:41;32.10;58.90
42867;DHT22;39461;40.948;73.006;2022-08-02T06:56:20;32.10;60.50
42867;DHT22;39461;40.948;73.006;2022-08-02T06:59:02;32.10;60.60
42867;DHT22;39461;40.948;73.006;2022-08-02T07:01:47;32.20;60.20
42867;DHT22;39461;40.948;73.006;2022-08-02T07:04:34;32.10;59.80
42867;DHT22;39461;40.948;73.006;2022-08-02T07:07:11;32.20;60.50
42867;DHT22;39461;40.948;73.006;2022-08-02T07:09:56;32.20;60.70
42867;DHT22;39461;40.948;73.006;2022-08-02T07:12:33;32.30;61.60
42867;DHT22;39461;40.948;73.006;2022-08-02T07:15:09;32.50;61.60
42867;DHT22;39461;40.948;73.006;2022-08-02T07:17:50;32.60;61.80
42867;DHT22;39461;40.948;73.006;2022-08-02T07:20:40;32.60;61.20
42867;DHT22;39461;40.948;73.006;2022-08-02T07:23:25;32.50;60.60
42867;DHT22;39461;40.948;73.006;2022-08-02T07:26:14;32.30;61.00
42867;DHT22;39461;40.948;73.006;2022-08-02T07:28:53;32.40;60.50
42867;DHT22;39461;40.948;73.006;2022-08-02T07:31:35;32.30;59.60
42867;DHT22;39461;40.948;73.006;2022-08-02T07:34:10;32.30;59.20
42867;DHT22;39461;40.948;73.006;2022-08-02T07:36:52;32.30;59.30
42867;DHT22;39461;40.948;73.006;2022-08-02T07:39:30;32.40;59.20
42867;DHT22;39461;40.948;73.006;2022-08-02T07:42:20;32.40;59.60
42867;DHT22;39461;40.948;73.006;2022-08-02T07:45:07;32.50;59.90
42867;DHT22;39461;40.948;73.006;2022-08-02T07:47:53;32.50;60.40
42867;DHT22;39461;40.948;73.006;2022-08-02T07:50:37;32.70;60.10
42867;DHT22;39461;40.948;73.006;2022-08-02T07:53:31;32.90;59.50
42867;DHT22;39461;40.948;73.006;2022-08-02T07:56:37;32.90;59.20
42867;DHT22;39461;40.948;73.006;2022-08-02T07:59:19;32.80;59.20
42867;DHT22;39461;40.948;73.006;2022-08-02T08:02:09;32.90;58.60
42867;DHT22;39461;40.948;73.006;2022-08-02T08:05:16;32.90;57.90
42867;DHT22;39461;40.948;73.006;2022-08-02T08:08:16;32.90;58.10
42867;DHT22;39461;40.948;73.006;2022-08-02T08:11:10;33.00;58.10
42867;DHT22;39461;40.948;73.006;2022-08-02T08:13:56;33.00;58.00
42867;DHT22;39461;40.948;73.006;2022-08-02T08:16:41;32.90;57.50
42867;DHT22;39461;40.948;73.006;2022-08-02T08:19:18;32.90;58.00
42867;DHT22;39461;40.948;73.006;2022-08-02T08:21:55;33.10;58.00
42867;DHT22;39461;40.948;73.006;2022-08-02T08:24:45;33.00;58.00
42867;DHT22;39461;40.948;73.006;2022-08-02T08:27:27;33.00;57.60
42867;DHT22;39461;40.948;73.006;2022-08-02T08:30:08;32.90;56.80
42867;DHT22;39461;40.948;73.006;2022-08-02T08:32:59;32.90;56.80
42867;DHT22;39461;40.948;73.006;2022-08-02T08:35:42;32.90;57.40
42867;DHT22;39461;40.948;73.006;2022-08-02T08:38:24;33.10;56.30
42867;DHT22;39461;40.948;73.006;2022-08-02T08:41:23;33.10;56.20
42867;DHT22;39461;40.948;73.006;2022-08-02T08:44:29;33.10;56.70
42867;DHT22;39461;40.948;73.006;2022-08-02T08:47:28;33.20;56.80
42867;DHT22;39461;40.948;73.006;2022-08-02T08:50:24;33.40;54.70
42867;DHT22;39461;40.948;73.006;2022-08-02T08:53:15;33.40;53.90
42867;DHT22;39461;40.948;73.006;2022-08-02T08:56:09;33.50;54.60
42867;DHT22;39461;40.948;73.006;2022-08-02T08:59:08;33.70;53.90
42867;DHT22;39461;40.948;73.006;2022-08-02T09:02:00;33.70;53.10
42867;DHT22;39461;40.948;73.006;2022-08-02T09:05:09;33.80;53.50
42867;DHT22;39461;40.948;73.006;2022-08-02T09:07:59;33.70;54.60
42867;DHT22;39461;40.948;73.006;2022-08-02T09:10:52;33.80;53.40
42867;DHT22;39461;40.948;73.006;2022-08-02T09:13:33;33.80;55.20
42867;DHT22;39461;40.948;73.006;2022-08-02T09:16:43;33.70;55.80
42867;DHT22;39461;40.948;73.006;2022-08-02T09:20:18;33.70;56.60
42867;DHT22;39461;40.948;73.006;2022-08-02T09:23:19;33.60;55.00
42867;DHT22;39461;40.948;73.006;2022-08-02T09:26:20;33.40;54.80
42867;DHT22;39461;40.948;73.006;2022-08-02T09:29:13;33.40;55.40
42867;DHT22;39461;40.948;73.006;2022-08-02T09:32:12;33.20;54.90
42867;DHT22;39461;40.948;73.006;2022-08-02T09:35:01;33.40;55.10
42867;DHT22;39461;40.948;73.006;2022-08-02T09:37:51;33.50;54.60
42867;DHT22;39461;40.948;73.006;2022-08-02T09:40:53;33.60;55.20
42867;DHT22;39461;40.948;73.006;2022-08-02T09:43:48;33.70;54.00
42867;DHT22;39461;40.948;73.006;2022-08-02T09:46:43;33.40;53.90
42867;DHT22;39461;40.948;73.006;2022-08-02T09:49:17;33.40;53.90
42867;DHT22;39461;40.948;73.006;2022-08-02T09:51:59;33.50;53.80
42867;DHT22;39461;40.948;73.006;2022-08-02T09:54:45;33.40;53.90
42867;DHT22;39461;40.948;73.006;2022-08-02T09:57:33;33.40;52.30
42867;DHT22;39461;40.948;73.006;2022-08-02T10:00:19;33.20;53.10
42867;DHT22;39461;40.948;73.006;2022-08-02T10:03:25;33.10;52.40
42867;DHT22;39461;40.948;73.006;2022-08-02T10:06:10;33.10;53.00
42867;DHT22;39461;40.948;73.006;2022-08-02T10:08:54;33.20;53.50
42867;DHT22;39461;40.948;73.006;2022-08-02T10:11:51;33.30;53.40
42867;DHT22;39461;40.948;73.006;2022-08-02T10:14:33;33.20;53.00
42867;DHT22;39461;40.948;73.006;2022-08-02T10:17:17;33.30;53.20
42867;DHT22;39461;40.948;73.006;2022-08-02T10:20:11;33.20;53.40
42867;DHT22;39461;40.948;73.006;2022-08-02T10:22:56;33.20;53.20
42867;DHT22;39461;40.948;73.006;2022-08-02T10:25:35;33.20;53.10
42867;DHT22;39461;40.948;73.006;2022-08-02T10:28:26;33.10;53.60
42867;DHT22;39461;40.948;73.006;2022-08-02T10:31:36;33.10;53.30
42867;DHT22;39461;40.948;73.006;2022-08-02T10:34:23;32.90;53.20
42867;DHT22;39461;40.948;73.006;2022-08-02T10:37:09;33.00;53.90
42867;DHT22;39461;40.948;73.006;2022-08-02T10:40:01;32.90;53.10
42867;DHT22;39461;40.948;73.006;2022-08-02T10:43:38;32.90;54.30
42867;DHT22;39461;40.948;73.006;2022-08-02T10:46:33;32.70;55.00
42867;DHT22;39461;40.948;73.006;2022-08-02T10:49:22;32.50;54.90
42867;DHT22;39461;40.948;73.006;2022-08-02T10:52:13;32.40;55.10
42867;DHT22;39461;40.948;73.006;2022-08-02T10:55:37;32.50;54.40
42867;DHT22;39461;40.948;73.006;2022-08-02T10:58:33;32.60;54.00
42867;DHT22;39461;40.948;73.006;2022-08-02T11:01:29;32.70;54.80
42867;DHT22;39461;40.948;73.006;2022-08-02T11:04:59;32.70;53.20
42867;DHT22;39461;40.948;73.006;2022-08-02T11:07:45;32.60;53.60
42867;DHT22;39461;40.948;73.006;2022-08-02T11:10:39;32.60;53.80
42867;DHT22;39461;40.948;73.006;2022-08-02T11:13:19;32.50;53.70
42867;DHT22;39461;40.948;73.006;2022-08-02T11:16:03;32.60;54.20
42867;DHT22;39461;40.948;73.006;2022-08-02T11:19:10;32.60;53.50
42867;DHT22;39461;40.948;73.006;2022-08-02T11:24:56;32.60;53.40
42867;DHT22;39461;40.948;73.006;2022-08-02T11:27:57;32.70;54.20
42867;DHT22;39461;40.948;73.006;2022-08-02T11:30:42;32.70;54.60
42867;DHT22;39461;40.948;73.006;2022-08-02T11:33:35;32.70;55.00
42867;DHT22;39461;40.948;73.006;2022-08-02T11:36:26;32.80;55.50
42867;DHT22;39461;40.948;73.006;2022-08-02T11:39:21;32.70;55.20
42867;DHT22;39461;40.948;73.006;2022-08-02T11:42:03;32.70;54.40
42867;DHT22;39461;40.948;73.006;2022-08-02T11:44:45;32.60;53.00
42867;DHT22;39461;40.948;73.006;2022-08-02T11:47:52;32.50;52.80
42867;DHT22;39461;40.948;73.006;2022-08-02T11:50:28;32.40;53.10
42867;DHT22;39461;40.948;73.006;2022-08-02T11:53:33;32.30;52.90
42867;DHT22;39461;40.948;73.006;2022-08-02T11:56:31;32.30;52.90
42867;DHT22;39461;40.948;73.006;2022-08-02T11:59:19;32.20;53.10
42867;DHT22;39461;40.948;73.006;2022-08-02T12:02:06;32.20;53.40
42867;DHT22;39461;40.948;73.006;2022-08-02T12:05:00;32.10;54.00
42867;DHT22;39461;40.948;73.006;2022-08-02T12:07:45;32.00;53.80
42867;DHT22;39461;40.948;73.006;2022-08-02T12:10:34;31.90;53.70
42867;DHT22;39461;40.948;73.006;2022-08-02T12:13:10;31.80;54.30
42867;DHT22;39461;40.948;73.006;2022-08-02T12:15:49;31.70;55.30
42867;DHT22;39461;40.948;73.006;2022-08-02T12:18:25;31.60;56.40
42867;DHT22;39461;40.948;73.006;2022-08-02T12:21:23;31.60;57.80
42867;DHT22;39461;40.948;73.006;2022-08-02T12:23:57;31.40;58.30
42867;DHT22;39461;40.948;73.006;2022-08-02T12:26:49;31.30;58.20
42867;DHT22;39461;40.948;73.006;2022-08-02T12:29:43;31.20;58.80
42867;DHT22;39461;40.948;73.006;2022-08-02T12:32:44;31.10;59.20
42867;DHT22;39461;40.948;73.006;2022-08-02T12:35:34;30.90;58.90
42867;DHT22;39461;40.948;73.006;2022-08-02T12:38:14;30.90;59.10
42867;DHT22;39461;40.948;73.006;2022-08-02T12:41:19;30.80;58.90
42867;DHT22;39461;40.948;73.006;2022-08-02T12:44:01;30.80;59.20
42867;DHT22;39461;40.948;73.006;2022-08-02T12:47:00;30.70;58.90
42867;DHT22;39461;40.948;73.006;2022-08-02T12:49:34;30.70;58.60
42867;DHT22;39461;40.948;73.006;2022-08-02T12:52:20;30.60;58.10
42867;DHT22;39461;40.948;73.006;2022-08-02T12:54:55;30.60;57.70
42867;DHT22;39461;40.948;73.006;2022-08-02T12:57:32;30.50;57.60
42867;DHT22;39461;40.948;73.006;2022-08-02T13:00:54;30.50;57.90
42867;DHT22;39461;40.948;73.006;2022-08-02T13:03:34;30.40;58.30
42867;DHT22;39461;40.948;73.006;2022-08-02T13:06:07;30.30;58.90
42867;DHT22;39461;40.948;73.006;2022-08-02T13:08:42;30.40;59.00
42867;DHT22;39461;40.948;73.006;2022-08-02T13:11:40;30.30;59.00
42867;DHT22;39461;40.948;73.006;2022-08-02T13:14:16;30.30;57.70
42867;DHT22;39461;40.948;73.006;2022-08-02T13:17:14;30.20;57.10
42867;DHT22;39461;40.948;73.006;2022-08-02T13:19:48;30.20;57.60
42867;DHT22;39461;40.948;73.006;2022-08-02T13:22:24;30.10;58.00
42867;DHT22;39461;40.948;73.006;2022-08-02T13:25:00;30.00;60.40
42867;DHT22;39461;40.948;73.006;2022-08-02T13:27:40;29.50;65.60
42867;DHT22;39461;40.948;73.006;2022-08-02T13:30:08;29.10;68.10
42867;DHT22;39461;40.948;73.006;2022-08-02T13:32:37;28.90;68.90
42867;DHT22;39461;40.948;73.006;2022-08-02T13:35:10;28.60;69.80
42867;DHT22;39461;40.948;73.006;2022-08-02T13:37:44;28.60;70.40
42867;DHT22;39461;40.948;73.006;2022-08-02T13:40:19;28.50;70.70
42867;DHT22;39461;40.948;73.006;2022-08-02T13:42:53;28.40;71.80
42867;DHT22;39461;40.948;73.006;2022-08-02T13:45:26;28.20;71.80
42867;DHT22;39461;40.948;73.006;2022-08-02T13:48:00;28.00;72.10
42867;DHT22;39461;40.948;73.006;2022-08-02T13:50:28;28.00;72.40
42867;DHT22;39461;40.948;73.006;2022-08-02T13:53:05;28.10;72.60
42867;DHT22;39461;40.948;73.006;2022-08-02T13:55:40;27.90;72.90
42867;DHT22;39461;40.948;73.006;2022-08-02T13:58:16;27.90;73.30
42867;DHT22;39461;40.948;73.006;2022-08-02T14:00:51;27.80;74.80
42867;DHT22;39461;40.948;73.006;2022-08-02T14:03:24;27.60;75.50
42867;DHT22;39461;40.948;73.006;2022-08-02T14:05:58;27.50;76.10
42867;DHT22;39461;40.948;73.006;2022-08-02T14:08:33;27.40;75.80
42867;DHT22;39461;40.948;73.006;2022-08-02T14:11:06;27.30;75.80
42867;DHT22;39461;40.948;73.006;2022-08-02T14:13:42;27.30;76.50
42867;DHT22;39461;40.948;73.006;2022-08-02T14:16:15;27.20;78.60
42867;DHT22;39461;40.948;73.006;2022-08-02T14:18:50;27.10;78.20
42867;DHT22;39461;40.948;73.006;2022-08-02T14:21:23;27.10;79.20
42867;DHT22;39461;40.948;73.006;2022-08-02T14:23:51;27.00;79.70
42867;DHT22;39461;40.948;73.006;2022-08-02T14:26:24;27.00;80.80
42867;DHT22;39461;40.948;73.006;2022-08-02T14:28:57;26.90;82.40
42867;DHT22;39461;40.948;73.006;2022-08-02T14:31:26;26.70;83.30
42867;DHT22;39461;40.948;73.006;2022-08-02T14:33:59;26.60;85.40
42867;DHT22;39461;40.948;73.006;2022-08-02T14:36:32;26.70;86.70
42867;DHT22;39461;40.948;73.006;2022-08-02T14:39:05;26.50;89.10
42867;DHT22;39461;40.948;73.006;2022-08-02T14:41:40;26.70;89.80
42867;DHT22;39461;40.948;73.006;2022-08-02T14:44:13;26.60;90.50
42867;DHT22;39461;40.948;73.006;2022-08-02T14:46:50;26.70;91.50
42867;DHT22;39461;40.948;73.006;2022-08-02T14:49:22;26.80;91.00
42867;DHT22;39461;40.948;73.006;2022-08-02T14:52:05;26.90;91.50
42867;DHT22;39461;40.948;73.006;2022-08-02T14:54:40;26.90;91.10
42867;DHT22;39461;40.948;73.006;2022-08-02T14:57:16;26.80;91.30
42867;DHT22;39461;40.948;73.006;2022-08-02T14:59:51;26.70;91.40
42867;DHT22;39461;40.948;73.006;2022-08-02T15:02:26;26.60;91.60
42867;DHT22;39461;40.948;73.006;2022-08-02T15:04:53;26.60;91.70
42867;DHT22;39461;40.948;73.006;2022-08-02T15:07:26;26.50;92.00
42867;DHT22;39461;40.948;73.006;2022-08-02T15:10:01;26.50;91.90
42867;DHT22;39461;40.948;73.006;2022-08-02T15:12:34;26.40;92.40
42867;DHT22;39461;40.948;73.006;2022-08-02T15:15:15;26.50;92.50
42867;DHT22;39461;40.948;73.006;2022-08-02T15:17:51;26.60;92.60
42867;DHT22;39461;40.948;73.006;2022-08-02T15:20:20;26.50;92.80
42867;DHT22;39461;40.948;73.006;2022-08-02T15:22:57;26.60;93.40
42867;DHT22;39461;40.948;73.006;2022-08-02T15:25:34;26.70;93.30
42867;DHT22;39461;40.948;73.006;2022-08-02T15:28:07;26.70;93.30
42867;DHT22;39461;40.948;73.006;2022-08-02T15:30:41;26.80;93.50
42867;DHT22;39461;40.948;73.006;2022-08-02T15:33:16;26.80;93.20
42867;DHT22;39461;40.948;73.006;2022-08-02T15:35:51;26.90;93.70
42867;DHT22;39461;40.948;73.006;2022-08-02T15:38:20;26.90;93.40
42867;DHT22;39461;40.948;73.006;2022-08-02T15:40:50;26.90;93.40
42867;DHT22;39461;40.948;73.006;2022-08-02T15:43:17;26.90;93.30
42867;DHT22;39461;40.948;73.006;2022-08-02T15:45:44;27.00;93.20
42867;DHT22;39461;40.948;73.006;2022-08-02T15:48:18;26.90;93.60
42867;DHT22;39461;40.948;73.006;2022-08-02T15:50:47;27.00;93.70
42867;DHT22;39461;40.948;73.006;2022-08-02T15:53:21;27.00;93.40
42867;DHT22;39461;40.948;73.006;2022-08-02T15:55:54;27.00;93.60
42867;DHT22;39461;40.948;73.006;2022-08-02T15:58:28;27.10;93.50
42867;DHT22;39461;40.948;73.006;2022-08-02T16:01:05;27.00;93.10
42867;DHT22;39461;40.948;73.006;2022-08-02T16:03:41;27.10;93.20
42867;DHT22;39461;40.948;73.006;2022-08-02T16:06:15;27.10;93.20
42867;DHT22;39461;40.948;73.006;2022-08-02T16:08:49;27.10;93.30
42867;DHT22;39461;40.948;73.006;2022-08-02T16:11:22;27.10;92.80
42867;DHT22;39461;40.948;73.006;2022-08-02T16:17:14;27.10;93.30
42867;DHT22;39461;40.948;73.006;2022-08-02T16:20:14;27.10;96.00
42867;DHT22;39461;40.948;73.006;2022-08-02T16:23:13;27.10;98.60
42867;DHT22;39461;40.948;73.006;2022-08-02T16:25:43;27.00;99.90
42867;DHT22;39461;40.948;73.006;2022-08-02T16:28:18;26.80;99.90
42867;DHT22;39461;40.948;73.006;2022-08-02T16:30:53;26.60;99.90
42867;DHT22;39461;40.948;73.006;2022-08-02T16:33:28;26.50;99.90
42867;DHT22;39461;40.948;73.006;2022-08-02T16:36:05;26.20;99.90
42867;DHT22;39461;40.948;73.006;2022-08-02T16:38:44;26.00;99.90
42867;DHT22;39461;40.948;73.006;2022-08-02T16:41:45;25.80;99.90
42867;DHT22;39461;40.948;73.006;2022-08-02T16:44:23;25.50;99.90
42867;DHT22;39461;40.948;73.006;2022-08-02T16:46:57;25.40;99.90
42867;DHT22;39461;40.948;73.006;2022-08-02T16:49:33;25.40;99.90
42867;DHT22;39461;40.948;73.006;2022-08-02T16:52:08;25.40;99.90
42867;DHT22;39461;40.948;73.006;2022-08-02T16:54:44;25.40;99.90
42867;DHT22;39461;40.948;73.006;2022-08-02T16:57:21;25.30;99.90
42867;DHT22;39461;40.948;73.006;2022-08-02T16:59:56;25.40;99.90
42867;DHT22;39461;40.948;73.006;2022-08-02T17:02:32;25.20;99.90
42867;DHT22;39461;40.948;73.006;2022-08-02T17:05:03;25.00;99.90
42867;DHT22;39461;40.948;73.006;2022-08-02T17:08:02;25.00;99.90
42867;DHT22;39461;40.948;73.006;2022-08-02T17:10:37;24.80;99.90
42867;DHT22;39461;40.948;73.006;2022-08-02T17:13:11;24.70;99.90
42867;DHT22;39461;40.948;73.006;2022-08-02T17:15:40;24.60;99.90
42867;DHT22;39461;40.948;73.006;2022-08-02T17:18:38;24.60;99.90
42867;DHT22;39461;40.948;73.006;2022-08-02T17:21:07;24.40;99.90
42867;DHT22;39461;40.948;73.006;2022-08-02T17:23:40;24.30;99.90
42867;DHT22;39461;40.948;73.006;2022-08-02T17:26:16;24.40;99.90